Time;durP1;ratioP1;P1;durP2;ratioP2;P2;SDS_P1;SDS_P2;PMS_P1;PMS_P2;Temp;Humidity;BMP_temperature;BMP_pressure;BME280_temperature;BME280_humidity;BME280_pressure;Samples;Min_cycle;Max_cycle;Signal;HPM_P1;HPM_P2
2022/06/03 00:01:09;;;;;;;6.97;6.17;;;16.80;99.90;;;;;;5075518;28;20201;-50
2022/06/03 00:03:54;;;;;;;6.50;6.10;;;16.80;99.90;;;;;;5082145;28;20289;-50
2022/06/03 00:06:44;;;;;;;6.70;6.40;;;16.80;99.90;;;;;;5091726;28;20245;-50
2022/06/03 00:09:42;;;;;;;6.47;6.03;;;16.80;99.90;;;;;;5064932;28;20217;-50
2022/06/03 00:12:24;;;;;;;7.67;7.17;;;16.80;99.90;;;;;;5063695;28;20229;-50
2022/06/03 00:15:12;;;;;;;6.97;6.50;;;16.80;99.90;;;;;;5063399;28;20613;-50
2022/06/03 00:18:05;;;;;;;6.80;6.40;;;16.90;99.90;;;;;;5080785;28;20216;-50
2022/06/03 00:20:44;;;;;;;6.70;6.20;;;16.90;99.90;;;;;;5072839;28;20531;-50
2022/06/03 00:23:51;;;;;;;7.03;6.53;;;16.90;99.90;;;;;;5068428;28;20236;-50
2022/06/03 00:26:45;;;;;;;7.53;6.67;;;16.90;99.90;;;;;;5063050;28;20807;-50
2022/06/03 00:29:41;;;;;;;6.60;6.10;;;17.00;99.90;;;;;;5070299;28;20235;-51
2022/06/03 00:32:30;;;;;;;8.00;7.37;;;17.00;99.90;;;;;;5082357;28;20193;-50
2022/06/03 00:35:40;;;;;;;6.63;6.23;;;17.00;99.90;;;;;;5077350;28;20200;-50
2022/06/03 00:38:39;;;;;;;6.43;6.13;;;17.00;99.90;;;;;;5056038;28;20221;-50
2022/06/03 00:41:16;;;;;;;7.03;6.73;;;16.90;99.90;;;;;;5067474;28;20689;-50
2022/06/03 00:43:53;;;;;;;7.60;6.83;;;16.90;99.90;;;;;;5070946;28;20719;-50
2022/06/03 00:46:52;;;;;;;7.03;6.63;;;17.00;99.90;;;;;;5076727;28;20208;-50
2022/06/03 00:49:47;;;;;;;8.03;7.33;;;16.90;99.90;;;;;;5067205;28;20659;-50
2022/06/03 00:52:41;;;;;;;8.43;7.77;;;16.90;99.90;;;;;;5018671;28;20204;-50
2022/06/03 00:55:28;;;;;;;7.53;6.97;;;16.90;99.90;;;;;;5080570;28;20196;-50
2022/06/03 00:58:09;;;;;;;6.73;6.07;;;16.80;99.90;;;;;;5081403;28;20246;-50
2022/06/03 01:00:41;;;;;;;6.57;6.17;;;16.80;99.90;;;;;;5079037;28;20208;-50
2022/06/03 01:03:17;;;;;;;6.40;6.10;;;16.80;99.90;;;;;;5061466;28;20220;-50
2022/06/03 01:06:10;;;;;;;6.30;6.00;;;16.80;99.90;;;;;;5085337;28;20208;-50
2022/06/03 01:08:50;;;;;;;6.27;5.80;;;16.80;99.90;;;;;;5072167;28;20198;-50
2022/06/03 01:11:44;;;;;;;6.40;5.73;;;16.90;99.90;;;;;;5071270;28;20216;-50
2022/06/03 01:14:23;;;;;;;6.63;6.07;;;16.90;99.90;;;;;;5065734;28;20217;-50
2022/06/03 01:17:02;;;;;;;7.43;6.53;;;16.90;99.90;;;;;;5086118;28;20249;-50
2022/06/03 01:19:47;;;;;;;6.20;5.83;;;16.90;99.90;;;;;;5091685;28;20705;-50
2022/06/03 01:23:05;;;;;;;6.47;5.93;;;17.00;99.90;;;;;;5089938;28;20245;-50
2022/06/03 01:25:51;;;;;;;6.50;6.10;;;17.00;99.90;;;;;;5067338;28;20197;-50
2022/06/03 01:28:47;;;;;;;5.73;5.23;;;17.00;99.90;;;;;;5080225;28;20638;-50
2022/06/03 01:31:53;;;;;;;6.50;6.00;;;17.00;99.90;;;;;;5071960;28;20201;-50
2022/06/03 01:34:32;;;;;;;6.17;5.73;;;17.00;99.90;;;;;;5058185;28;20263;-50
2022/06/03 01:37:11;;;;;;;4.80;4.50;;;16.90;99.90;;;;;;5069497;28;20193;-50
2022/06/03 01:40:07;;;;;;;5.53;5.13;;;16.90;99.90;;;;;;5059824;28;20275;-50
2022/06/03 01:43:09;;;;;;;5.60;5.30;;;16.90;99.90;;;;;;5046779;28;20197;-50
2022/06/03 01:45:58;;;;;;;5.57;5.13;;;16.90;99.90;;;;;;5078907;28;20201;-50
2022/06/03 01:48:48;;;;;;;6.73;6.33;;;16.90;99.90;;;;;;5073855;28;20200;-50
2022/06/03 01:51:43;;;;;;;7.93;7.33;;;16.90;99.90;;;;;;5060664;28;20667;-50
2022/06/03 01:54:48;;;;;;;7.57;7.10;;;17.00;99.90;;;;;;5082715;28;20228;-50
2022/06/03 01:57:41;;;;;;;8.43;7.63;;;16.90;99.90;;;;;;5075863;28;20201;-50
2022/06/03 02:00:30;;;;;;;8.20;7.50;;;16.80;99.90;;;;;;5091641;28;20250;-50
2022/06/03 02:03:42;;;;;;;8.00;7.40;;;16.70;99.90;;;;;;5076138;28;20236;-50
2022/06/03 02:07:05;;;;;;;6.70;6.27;;;16.60;99.90;;;;;;5087692;28;20197;-49
2022/06/03 02:10:10;;;;;;;7.57;7.10;;;16.50;99.90;;;;;;5074881;28;20263;-50
2022/06/03 02:13:01;;;;;;;6.73;6.33;;;16.50;99.90;;;;;;5023721;28;20228;-49
2022/06/03 02:16:04;;;;;;;7.63;7.13;;;16.40;99.90;;;;;;5064382;28;20198;-50
2022/06/03 02:19:11;;;;;;;8.00;7.37;;;16.40;99.90;;;;;;5062139;28;20225;-50
2022/06/03 02:22:21;;;;;;;6.90;6.50;;;16.40;99.90;;;;;;5045500;28;20638;-50
2022/06/03 02:25:22;;;;;;;6.67;6.27;;;16.20;99.90;;;;;;5067406;28;20197;-50
2022/06/03 02:28:23;;;;;;;6.87;6.57;;;16.20;99.90;;;;;;5068612;28;20232;-50
2022/06/03 02:31:23;;;;;;;8.13;7.73;;;16.20;99.90;;;;;;5020853;28;20217;-50
2022/06/03 02:34:24;;;;;;;8.10;7.57;;;16.30;99.90;;;;;;5062155;28;20225;-50
2022/06/03 02:37:16;;;;;;;7.20;6.57;;;16.30;99.90;;;;;;5053567;28;20551;-50
2022/06/03 02:40:30;;;;;;;7.80;7.30;;;16.20;99.90;;;;;;5071407;28;20213;-50
2022/06/03 02:43:35;;;;;;;7.70;7.17;;;16.30;99.90;;;;;;5062229;28;20221;-50
2022/06/03 02:46:43;;;;;;;8.43;7.70;;;16.30;99.90;;;;;;5067353;28;20201;-50
2022/06/03 02:49:38;;;;;;;7.77;7.37;;;16.20;99.90;;;;;;5067357;28;20241;-50
2022/06/03 02:52:43;;;;;;;7.97;7.37;;;16.10;99.90;;;;;;5059902;28;20197;-51
2022/06/03 02:55:43;;;;;;;6.83;6.47;;;16.20;99.90;;;;;;5063062;28;20201;-50
2022/06/03 02:58:32;;;;;;;8.03;7.60;;;16.20;99.90;;;;;;5069112;28;20217;-50
2022/06/03 03:01:24;;;;;;;7.97;7.23;;;16.10;99.90;;;;;;5071611;28;20202;-50
2022/06/03 03:04:21;;;;;;;8.27;7.63;;;16.10;99.90;;;;;;5058869;28;20226;-50
2022/06/03 03:07:21;;;;;;;8.37;7.67;;;16.10;99.90;;;;;;5045259;28;20667;-50
2022/06/03 03:10:21;;;;;;;6.90;6.50;;;16.10;99.90;;;;;;5072283;28;20202;-50
2022/06/03 03:13:20;;;;;;;6.83;6.53;;;16.00;99.90;;;;;;5014746;28;20232;-50
2022/06/03 03:16:21;;;;;;;8.17;7.57;;;15.90;99.90;;;;;;5064085;28;20278;-50
2022/06/03 03:19:13;;;;;;;7.03;6.50;;;15.80;99.90;;;;;;5063875;28;20225;-49
2022/06/03 03:22:27;;;;;;;7.00;6.60;;;15.70;99.90;;;;;;5058406;28;20202;-50
2022/06/03 03:25:27;;;;;;;7.27;6.90;;;15.70;99.90;;;;;;5072227;28;20212;-50
2022/06/03 03:28:36;;;;;;;6.57;6.13;;;15.60;99.90;;;;;;5061628;28;20201;-50
2022/06/03 03:31:20;;;;;;;7.97;7.27;;;15.50;99.90;;;;;;5057847;28;20670;-51
2022/06/03 03:34:13;;;;;;;8.40;7.83;;;15.50;99.90;;;;;;5062991;28;20237;-50
2022/06/03 03:37:13;;;;;;;7.03;6.63;;;15.50;99.90;;;;;;5063186;28;20252;-51
2022/06/03 03:40:18;;;;;;;7.10;6.80;;;15.50;99.90;;;;;;5054502;28;20301;-51
2022/06/03 03:43:16;;;;;;;7.30;6.70;;;15.50;99.90;;;;;;5070267;28;20229;-50
2022/06/03 03:46:17;;;;;;;7.97;7.37;;;15.50;99.90;;;;;;5064639;28;20205;-50
2022/06/03 03:49:14;;;;;;;7.67;7.23;;;15.50;99.90;;;;;;5060295;28;20202;-50
2022/06/03 03:52:23;;;;;;;6.37;6.10;;;15.60;99.90;;;;;;5064485;28;20197;-50
2022/06/03 03:55:28;;;;;;;7.07;6.50;;;15.60;99.90;;;;;;5060580;28;20201;-50
2022/06/03 03:58:34;;;;;;;6.73;6.33;;;15.60;99.90;;;;;;5065771;28;20649;-50
2022/06/03 04:01:39;;;;;;;5.73;5.43;;;15.60;99.90;;;;;;5042867;28;20682;-51
2022/06/03 04:04:40;;;;;;;6.43;6.03;;;15.60;99.90;;;;;;5065347;28;20235;-50
2022/06/03 04:07:57;;;;;;;6.20;5.93;;;15.70;99.90;;;;;;5063585;28;20209;-50
2022/06/03 04:10:50;;;;;;;6.27;5.97;;;15.80;99.90;;;;;;4977747;28;20202;-51
2022/06/03 04:13:42;;;;;;;7.27;6.87;;;15.90;99.90;;;;;;4978348;28;20250;-50
2022/06/03 04:16:50;;;;;;;5.90;5.67;;;15.90;99.90;;;;;;5056158;28;20204;-50
2022/06/03 04:19:56;;;;;;;7.97;7.20;;;16.00;99.90;;;;;;5042512;28;20305;-50
2022/06/03 04:22:51;;;;;;;8.10;7.47;;;16.20;99.90;;;;;;5052508;28;20205;-50
2022/06/03 04:25:43;;;;;;;7.90;7.30;;;16.40;99.90;;;;;;5064734;28;20205;-51
2022/06/03 04:28:42;;;;;;;6.80;6.40;;;16.60;99.90;;;;;;5047397;28;20205;-50
2022/06/03 04:31:52;;;;;;;6.73;6.40;;;16.80;99.90;;;;;;5052659;28;20264;-51
2022/06/03 04:35:09;;;;;;;7.53;6.90;;;16.90;99.90;;;;;;5066654;28;20642;-50
2022/06/03 04:38:16;;;;;;;7.70;7.10;;;17.10;99.90;;;;;;5062632;28;20200;-51
2022/06/03 04:41:20;;;;;;;7.80;7.20;;;17.20;99.90;;;;;;5052238;28;20201;-50
2022/06/03 04:44:20;;;;;;;8.37;7.57;;;17.40;99.90;;;;;;5061841;28;20232;-51
2022/06/03 04:47:34;;;;;;;6.90;6.33;;;17.50;99.90;;;;;;5047775;28;20279;-51
2022/06/03 04:50:49;;;;;;;8.07;7.57;;;17.40;99.90;;;;;;5071926;28;20666;-51
2022/06/03 04:54:08;;;;;;;7.87;7.27;;;17.40;99.90;;;;;;5081590;22;20228;-46
2022/06/03 04:57:23;;;;;;;8.83;8.30;;;17.40;99.90;;;;;;5059994;28;20852;-46
2022/06/03 05:00:25;;;;;;;9.30;8.47;;;17.40;99.90;;;;;;5063039;28;20295;-45
2022/06/03 05:03:34;;;;;;;10.37;9.47;;;17.50;99.90;;;;;;5068597;28;20220;-46
2022/06/03 05:06:34;;;;;;;10.17;9.27;;;17.80;99.90;;;;;;5071195;28;20601;-46
2022/06/03 05:09:37;;;;;;;10.10;9.13;;;18.30;99.90;;;;;;5064431;28;20201;-46
2022/06/03 05:12:34;;;;;;;9.80;9.03;;;18.80;99.90;;;;;;5051810;28;20275;-46
2022/06/03 05:15:36;;;;;;;9.17;8.27;;;19.50;99.90;;;;;;5052268;28;20205;-46
2022/06/03 05:18:45;;;;;;;11.93;10.70;;;20.70;99.90;;;;;;5061815;28;20200;-46
2022/06/03 05:21:45;;;;;;;10.43;8.50;;;21.70;99.90;;;;;;5065579;28;20247;-46
2022/06/03 05:24:51;;;;;;;7.43;7.00;;;21.30;99.90;;;;;;5070679;28;20193;-46
2022/06/03 05:28:04;;;;;;;7.53;7.00;;;21.00;99.90;;;;;;5051823;28;20255;-46
2022/06/03 05:30:54;;;;;;;7.70;7.10;;;20.40;99.90;;;;;;5052238;28;20190;-46
2022/06/03 05:34:06;;;;;;;7.00;6.67;;;19.80;99.90;;;;;;5051654;28;20282;-46
2022/06/03 05:37:24;;;;;;;8.70;8.00;;;20.50;99.90;;;;;;4998914;28;20199;-46
2022/06/03 05:40:03;;;;;;;7.63;6.83;;;20.90;99.90;;;;;;5022899;28;20256;-46
2022/06/03 05:42:53;;;;;;;7.10;6.70;;;21.80;99.90;;;;;;5063988;28;20694;-46
2022/06/03 05:45:52;;;;;;;6.50;6.20;;;22.20;99.90;;;;;;5052574;28;20229;-46
2022/06/03 05:48:24;;;;;;;6.67;6.20;;;22.00;99.90;;;;;;5060429;28;20252;-46
2022/06/03 05:50:58;;;;;;;5.70;5.27;;;21.40;99.90;;;;;;5070488;28;20205;-46
2022/06/03 05:53:40;;;;;;;6.80;6.17;;;21.30;99.90;;;;;;5051240;28;20314;-46
2022/06/03 05:56:36;;;;;;;6.53;6.13;;;20.70;99.90;;;;;;5058121;28;20499;-46
2022/06/03 05:59:15;;;;;;;6.53;6.13;;;20.80;99.90;;;;;;5061935;28;20769;-46
2022/06/03 06:02:08;;;;;;;6.00;5.57;;;21.60;99.90;;;;;;5051442;28;20197;-46
2022/06/03 06:04:50;;;;;;;5.47;5.17;;;22.30;99.90;;;;;;5058527;28;20193;-46
2022/06/03 06:07:26;;;;;;;5.03;4.73;;;23.50;99.90;;;;;;5063781;28;20254;-46
2022/06/03 06:10:02;;;;;;;4.83;4.53;;;23.70;99.90;;;;;;5070098;28;20233;-46
2022/06/03 06:12:51;;;;;;;4.73;4.43;;;23.90;99.90;;;;;;5071489;28;20702;-46
2022/06/03 06:15:49;;;;;;;4.87;4.57;;;24.20;99.90;;;;;;5064642;28;20228;-46
2022/06/03 06:18:24;;;;;;;4.83;4.50;;;24.50;99.90;;;;;;5054959;28;20190;-46
2022/06/03 06:21:13;;;;;;;4.70;4.30;;;24.00;99.90;;;;;;5055339;28;20264;-46
2022/06/03 06:23:45;;;;;;;5.07;4.87;;;23.40;99.90;;;;;;5073283;28;20228;-46
2022/06/03 06:26:45;;;;;;;4.70;4.50;;;22.80;99.90;;;;;;5063161;28;20240;-46
2022/06/03 06:29:34;;;;;;;4.00;3.80;;;22.50;99.90;;;;;;5052863;28;20578;-46
2022/06/03 06:32:31;;;;;;;4.73;4.13;;;22.20;99.90;;;;;;5054792;28;20216;-46
2022/06/03 06:35:34;;;;;;;3.90;3.80;;;22.00;99.90;;;;;;5062985;28;20274;-47
2022/06/03 06:38:09;;;;;;;4.60;4.37;;;22.00;99.90;;;;;;5032028;28;20201;-46
2022/06/03 06:40:47;;;;;;;4.40;4.10;;;22.00;99.90;;;;;;5055643;28;20221;-47
2022/06/03 06:43:38;;;;;;;4.13;3.93;;;22.10;99.90;;;;;;5055412;28;20267;-46
2022/06/03 06:46:13;;;;;;;4.07;3.77;;;22.40;99.90;;;;;;5056032;28;20293;-46
2022/06/03 06:48:52;;;;;;;4.27;4.07;;;23.10;99.90;;;;;;5063816;28;20288;-47
2022/06/03 06:51:48;;;;;;;4.73;4.37;;;23.90;99.90;;;;;;5065652;28;20248;-47
2022/06/03 06:54:25;;;;;;;5.57;5.13;;;25.10;99.90;;;;;;5066398;28;20263;-47
2022/06/03 06:56:58;;;;;;;4.57;4.35;;;26.30;99.90;;;;;;5066787;28;20497;-47
2022/06/03 06:59:31;;;;;;;3.80;3.60;;;27.00;99.90;;;;;;5064690;28;20695;-47
2022/06/03 07:02:07;;;;;;;4.35;4.05;;;28.00;99.90;;;;;;5072798;28;20201;-47
2022/06/03 07:04:39;;;;;;;3.95;3.65;;;28.50;99.90;;;;;;5073288;28;20193;-47
2022/06/03 07:07:14;;;;;;;11.57;7.95;;;28.80;99.90;;;;;;5069234;28;20194;-46
2022/06/03 07:09:50;;;;;;;4.80;4.18;;;29.20;99.90;;;;;;5062137;28;20260;-47
2022/06/03 07:12:19;;;;;;;4.20;3.47;;;29.50;99.90;;;;;;5059781;28;20225;-47
2022/06/03 07:15:10;;;;;;;5.47;4.93;;;29.60;99.90;;;;;;5068453;28;20200;-47
2022/06/03 07:20:45;;;;;;;4.13;3.88;;;30.10;99.90;;;;;;5068662;28;20232;-47
2022/06/03 07:23:21;;;;;;;5.80;3.78;;;30.00;99.90;;;;;;5073263;28;20274;-47
2022/06/03 07:25:56;;;;;;;3.20;3.10;;;29.80;99.90;;;;;;5073956;28;20266;-47
2022/06/03 07:28:34;;;;;;;2.58;2.47;;;29.80;99.90;;;;;;5067892;28;20270;-47
2022/06/03 07:31:10;;;;;;;3.05;2.95;;;30.20;99.90;;;;;;5067750;28;20728;-47
2022/06/03 07:33:47;;;;;;;3.42;3.33;;;29.90;99.90;;;;;;5069354;28;20303;-47
2022/06/03 07:36:21;;;;;;;2.35;2.25;;;29.70;99.90;;;;;;5073795;28;20201;-47
2022/06/03 07:38:55;;;;;;;3.13;2.92;;;29.60;99.90;;;;;;5073697;28;20240;-47
2022/06/03 07:41:31;;;;;;;3.20;3.10;;;29.30;99.90;;;;;;5072523;28;20217;-47
2022/06/03 07:44:03;;;;;;;3.80;2.67;;;29.10;99.90;;;;;;5065131;28;20221;-47
2022/06/03 07:46:38;;;;;;;5.50;3.58;;;29.30;99.90;;;;;;5073701;28;20208;-47
2022/06/03 07:49:10;;;;;;;7.78;5.90;;;29.60;99.90;;;;;;5073441;28;20690;-47
2022/06/03 07:51:39;;;;;;;4.32;3.90;;;30.10;99.90;;;;;;5070677;28;20204;-47
2022/06/03 07:54:12;;;;;;;2.38;2.38;;;30.10;99.90;;;;;;5068645;28;20284;-47
2022/06/03 07:56:40;;;;;;;16.67;8.75;;;30.00;99.90;;;;;;5069260;28;20205;-47
2022/06/03 07:59:13;;;;;;;5.30;3.22;;;29.30;99.90;;;;;;5073379;28;20213;-47
2022/06/03 08:01:43;;;;;;;5.57;2.83;;;29.10;99.90;;;;;;5064716;28;20197;-47
2022/06/03 08:04:25;;;;;;;5.90;4.82;;;29.30;99.90;;;;;;5065118;28;20204;-47
2022/06/03 08:12:28;;;;;;;3.25;2.92;;;29.10;99.90;;;;;;5065731;28;20227;-47
2022/06/03 08:14:55;;;;;;;2.95;2.78;;;29.40;99.90;;;;;;5071113;28;20709;-47
2022/06/03 08:17:23;;;;;;;5.53;3.28;;;29.50;99.90;;;;;;5073010;28;20941;-47
2022/06/03 08:19:54;;;;;;;18.42;11.57;;;29.90;99.90;;;;;;5072815;28;20251;-47
2022/06/03 08:22:25;;;;;;;4.68;4.30;;;30.10;99.90;;;;;;5066455;28;20222;-47
2022/06/03 08:24:56;;;;;;;5.25;2.80;;;30.20;99.90;;;;;;5070766;28;20255;-47
2022/06/03 08:27:26;;;;;;;3.45;3.25;;;30.70;99.90;;;;;;5071777;28;20284;-47
2022/06/03 08:29:59;;;;;;;3.13;2.97;;;31.20;99.90;;;;;;5063022;28;20190;-47
2022/06/03 08:32:31;;;;;;;3.25;3.15;;;31.40;99.90;;;;;;5060496;28;20209;-47
2022/06/03 08:35:01;;;;;;;2.60;2.45;;;31.50;99.90;;;;;;5067583;28;20263;-48
2022/06/03 08:37:33;;;;;;;3.42;3.10;;;31.60;99.90;;;;;;5066107;28;20205;-47
2022/06/03 08:40:10;;;;;;;2.97;2.88;;;31.50;99.90;;;;;;5061933;28;20263;-47
2022/06/03 08:42:47;;;;;;;2.50;2.30;;;31.50;99.90;;;;;;5058918;28;20225;-47
2022/06/03 08:45:28;;;;;;;3.53;3.10;;;31.70;99.90;;;;;;5060585;28;20233;-47
2022/06/03 08:47:57;;;;;;;2.50;2.40;;;32.20;99.90;;;;;;5059483;28;20674;-47
2022/06/03 08:50:31;;;;;;;4.55;2.78;;;31.90;99.90;;;;;;5063781;28;20655;-47
2022/06/03 08:53:06;;;;;;;2.45;2.45;;;32.20;99.90;;;;;;5071962;28;20231;-47
2022/06/03 08:55:41;;;;;;;5.25;2.88;;;32.70;99.90;;;;;;5063716;28;20247;-47
2022/06/03 08:58:32;;;;;;;2.40;2.20;;;33.00;99.90;;;;;;5068142;28;20219;-47
2022/06/03 09:01:19;;;;;;;2.55;2.35;;;33.00;99.80;;;;;;5063675;28;20262;-47
2022/06/03 09:03:58;;;;;;;4.07;2.42;;;32.50;96.40;;;;;;5070212;28;20282;-47
2022/06/03 09:06:40;;;;;;;5.28;4.65;;;31.20;97.10;;;;;;5052344;28;20201;-47
2022/06/03 09:09:16;;;;;;;8.20;7.82;;;30.50;99.90;;;;;;5058983;28;20248;-47
2022/06/03 09:11:47;;;;;;;8.63;8.02;;;30.40;99.90;;;;;;5051587;28;20225;-47
2022/06/03 09:14:21;;;;;;;8.43;7.93;;;30.00;99.90;;;;;;5051941;28;20554;-47
2022/06/03 09:16:49;;;;;;;7.65;7.15;;;29.80;99.90;;;;;;5051884;28;20230;-47
2022/06/03 09:19:23;;;;;;;7.53;7.03;;;30.40;99.90;;;;;;5059816;28;20924;-47
2022/06/03 09:21:52;;;;;;;8.57;8.02;;;30.90;99.90;;;;;;5060269;28;20260;-47
2022/06/03 09:24:23;;;;;;;8.38;7.75;;;31.20;99.90;;;;;;5051700;28;20206;-47
2022/06/03 09:26:54;;;;;;;9.93;9.20;;;31.00;99.90;;;;;;5051423;28;20224;-46
2022/06/03 09:29:21;;;;;;;10.18;9.68;;;30.80;99.90;;;;;;5061245;28;20197;-47
2022/06/03 09:31:52;;;;;;;9.07;8.45;;;30.50;99.90;;;;;;5060402;28;20232;-47
2022/06/03 09:34:25;;;;;;;7.07;6.65;;;30.50;99.90;;;;;;5056392;28;20243;-46
2022/06/03 09:36:55;;;;;;;7.80;7.28;;;30.30;99.90;;;;;;5068887;28;20665;-46
2022/06/03 09:39:23;;;;;;;7.75;7.28;;;30.30;99.90;;;;;;5059692;28;20541;-47
2022/06/03 09:41:57;;;;;;;6.45;6.25;;;29.60;99.90;;;;;;5060057;28;20310;-47
2022/06/03 09:44:26;;;;;;;5.72;5.53;;;29.90;99.90;;;;;;5057127;28;20212;-47
2022/06/03 09:46:58;;;;;;;7.65;7.05;;;30.50;99.90;;;;;;5070886;28;20613;-47
2022/06/03 09:49:27;;;;;;;5.97;5.57;;;31.00;99.90;;;;;;5060870;28;20208;-48
2022/06/03 09:51:59;;;;;;;7.20;6.65;;;31.20;99.90;;;;;;5060744;28;20610;-47
2022/06/03 09:54:29;;;;;;;6.50;6.13;;;31.60;99.90;;;;;;5051151;28;20198;-48
2022/06/03 09:57:01;;;;;;;7.38;6.78;;;31.70;99.90;;;;;;5051155;28;20203;-48
2022/06/03 09:59:29;;;;;;;8.48;7.90;;;31.90;99.90;;;;;;5063598;28;20617;-47
2022/06/03 10:01:56;;;;;;;7.80;7.13;;;31.60;99.90;;;;;;5069994;28;20252;-47
2022/06/03 10:04:26;;;;;;;9.82;9.05;;;31.70;99.90;;;;;;5057280;28;20197;-50
2022/06/03 10:06:59;;;;;;;8.95;8.13;;;31.90;99.90;;;;;;5049767;28;20667;-49
2022/06/03 10:17:50;;;;;;;7.90;7.20;;;31.50;99.90;;;;;;5070337;28;20242;-48
2022/06/03 10:20:19;;;;;;;8.88;7.65;;;31.00;99.90;;;;;;5064376;28;20214;-49
2022/06/03 10:22:48;;;;;;;7.53;7.13;;;30.80;99.90;;;;;;5058337;28;20698;-49
2022/06/03 10:25:16;;;;;;;6.60;6.20;;;31.40;99.90;;;;;;5061959;28;20202;-49
2022/06/03 10:27:45;;;;;;;6.60;6.30;;;31.50;99.90;;;;;;5068346;28;20229;-49
2022/06/03 10:30:13;;;;;;;6.22;5.93;;;31.70;99.90;;;;;;5061970;28;20280;-48
2022/06/03 10:32:41;;;;;;;5.82;5.47;;;31.60;99.90;;;;;;5053464;28;20222;-48
2022/06/03 10:35:13;;;;;;;5.40;5.20;;;31.50;99.90;;;;;;5058487;28;20197;-48
2022/06/03 10:37:50;;;;;;;6.72;6.10;;;31.50;99.90;;;;;;5064633;28;20206;-48
2022/06/03 10:40:19;;;;;;;4.68;4.40;;;31.20;99.90;;;;;;5061648;28;20775;-48
2022/06/03 10:42:47;;;;;;;5.28;4.85;;;31.20;99.90;;;;;;5069508;28;20217;-48
2022/06/03 10:45:15;;;;;;;5.28;5.03;;;31.50;99.90;;;;;;5064585;28;20281;-48
2022/06/03 10:47:45;;;;;;;3.88;3.67;;;31.70;99.90;;;;;;5058143;28;20228;-48
2022/06/03 10:50:24;;;;;;;4.07;3.78;;;31.80;99.90;;;;;;5058001;28;20194;-48
2022/06/03 11:01:32;;;;;;;3.63;3.53;;;30.70;99.90;;;;;;5053565;28;20259;-48
2022/06/03 11:03:59;;;;;;;2.17;2.08;;;30.30;99.90;;;;;;5066041;28;20679;-48
2022/06/03 11:06:32;;;;;;;2.55;2.45;;;30.20;98.80;;;;;;5072297;28;20204;-48
2022/06/03 11:09:03;;;;;;;3.70;2.80;;;30.10;99.90;;;;;;5082091;22;20235;-51
2022/06/03 11:11:39;;;;;;;3.00;3.00;;;30.10;99.90;;;;;;5017002;28;20199;-49
2022/06/03 11:14:40;;;;;;;2.42;2.42;;;30.00;99.90;;;;;;5025365;28;20198;-50
2022/06/03 11:17:11;;;;;;;2.10;2.00;;;29.90;99.90;;;;;;5021809;28;20190;-51
2022/06/03 11:19:43;;;;;;;1.98;1.98;;;30.10;99.90;;;;;;5011673;28;20223;-51
2022/06/03 11:22:29;;;;;;;2.70;2.25;;;30.20;99.90;;;;;;5016175;28;20219;-50
2022/06/03 11:25:03;;;;;;;2.30;2.20;;;30.40;99.90;;;;;;5025273;28;20202;-51
2022/06/03 11:27:39;;;;;;;2.15;2.15;;;30.40;99.70;;;;;;5013194;28;20298;-51
2022/06/03 11:30:17;;;;;;;2.47;2.38;;;30.20;98.20;;;;;;5025640;28;20225;-51
2022/06/03 11:32:48;;;;;;;13.52;7.15;;;30.30;97.70;;;;;;5017370;28;20203;-51
2022/06/03 11:35:24;;;;;;;2.40;2.30;;;30.20;99.90;;;;;;5000295;28;20277;-51
2022/06/03 11:37:53;;;;;;;2.50;2.00;;;30.20;98.90;;;;;;4993824;28;20616;-52
2022/06/03 11:40:25;;;;;;;2.60;2.60;;;29.70;99.30;;;;;;5017188;28;20219;-51
2022/06/03 11:43:00;;;;;;;2.60;2.50;;;29.70;99.90;;;;;;5030751;28;20268;-51
2022/06/03 11:45:39;;;;;;;2.80;2.70;;;29.60;99.90;;;;;;5021160;28;20199;-50
2022/06/03 11:48:16;;;;;;;2.88;2.80;;;29.50;99.90;;;;;;5032414;28;20276;-50
2022/06/03 11:50:43;;;;;;;3.80;3.60;;;29.20;99.90;;;;;;5020906;28;20296;-50
2022/06/03 11:53:10;;;;;;;4.50;4.20;;;29.00;99.90;;;;;;5017984;28;20199;-50
2022/06/03 11:55:39;;;;;;;4.93;4.65;;;28.80;99.90;;;;;;5028605;28;20628;-51
2022/06/03 11:58:10;;;;;;;5.28;4.90;;;28.60;99.90;;;;;;5013577;28;20203;-53
2022/06/03 12:00:43;;;;;;;6.57;6.07;;;28.50;99.90;;;;;;5010622;28;20223;-52
2022/06/03 12:03:29;;;;;;;6.32;5.93;;;28.30;99.90;;;;;;5012009;28;20203;-52
2022/06/03 12:06:00;;;;;;;7.43;6.97;;;28.20;99.90;;;;;;5020933;28;20237;-52
2022/06/03 12:08:37;;;;;;;5.30;4.97;;;28.00;99.90;;;;;;5025771;28;20198;-52
2022/06/03 12:13:14;;;;;;;7.07;6.57;;;27.80;99.90;;;;;;5021386;28;20561;-52
2022/06/03 12:14:27;;;;;;;7.68;7.28;;;27.40;99.90;;;;;;5023972;28;20620;-52
2022/06/03 12:16:57;;;;;;;6.53;6.22;;;27.20;99.90;;;;;;5025595;28;20195;-52
2022/06/03 12:19:41;;;;;;;7.88;7.38;;;27.10;99.90;;;;;;5017119;28;20218;-53
2022/06/03 12:22:39;;;;;;;7.13;6.53;;;26.90;99.90;;;;;;5023776;28;20244;-52
2022/06/03 12:25:27;;;;;;;7.40;6.82;;;26.80;99.90;;;;;;5032514;28;20289;-52
2022/06/03 12:27:57;;;;;;;7.70;7.30;;;26.50;99.90;;;;;;5009790;28;20698;-53
2022/06/03 12:30:37;;;;;;;8.60;7.35;;;26.40;99.90;;;;;;5010335;28;20297;-52
2022/06/03 12:33:08;;;;;;;8.77;8.20;;;26.20;99.90;;;;;;5012270;28;20199;-52
2022/06/03 12:36:07;;;;;;;7.97;7.43;;;26.00;99.90;;;;;;5012344;28;20209;-50
2022/06/03 12:38:57;;;;;;;6.15;5.75;;;25.90;99.90;;;;;;5020418;28;20222;-52
2022/06/03 12:42:01;;;;;;;7.05;6.63;;;25.80;99.90;;;;;;4992424;28;20279;-53
2022/06/03 12:45:06;;;;;;;7.43;7.13;;;25.80;99.90;;;;;;4992496;28;20685;-52
2022/06/03 12:47:55;;;;;;;6.22;5.82;;;25.70;99.90;;;;;;4996576;28;20238;-50
2022/06/03 12:50:37;;;;;;;7.15;6.57;;;25.60;99.90;;;;;;5020499;28;20264;-50
2022/06/03 12:53:27;;;;;;;7.73;7.33;;;25.60;99.90;;;;;;5013760;28;20214;-53
2022/06/03 12:55:59;;;;;;;6.32;5.90;;;25.40;99.90;;;;;;5019611;28;20214;-53
2022/06/03 12:58:50;;;;;;;6.97;6.43;;;25.30;99.90;;;;;;5017829;28;20237;-52
2022/06/03 13:01:35;;;;;;;6.45;6.15;;;25.20;99.90;;;;;;5018721;28;20215;-53
2022/06/03 13:04:40;;;;;;;6.40;5.90;;;25.00;99.90;;;;;;5011885;28;20717;-53
2022/06/03 13:07:32;;;;;;;6.47;6.10;;;24.80;99.90;;;;;;5010025;28;20234;-53
2022/06/03 13:10:19;;;;;;;9.20;8.17;;;24.80;99.90;;;;;;5012432;28;20230;-53
2022/06/03 13:12:48;;;;;;;7.03;6.43;;;24.90;99.90;;;;;;5023191;28;20190;-52
2022/06/03 13:15:47;;;;;;;5.97;5.67;;;24.90;99.90;;;;;;5031478;28;20260;-52
2022/06/03 13:18:32;;;;;;;5.47;5.27;;;24.80;99.90;;;;;;5022180;28;20277;-52
2022/06/03 13:21:22;;;;;;;10.13;9.20;;;24.80;99.90;;;;;;5014038;28;20203;-52
2022/06/03 13:24:21;;;;;;;7.17;6.57;;;24.80;99.90;;;;;;5028588;28;20253;-52
2022/06/03 13:27:07;;;;;;;6.87;6.30;;;24.80;99.90;;;;;;5015807;28;20215;-52
2022/06/03 13:30:10;;;;;;;7.03;6.35;;;24.90;99.90;;;;;;5017850;28;20218;-52
2022/06/03 13:32:58;;;;;;;7.03;6.63;;;25.10;99.90;;;;;;5022260;28;20225;-52
2022/06/03 13:35:27;;;;;;;10.85;9.85;;;25.00;99.90;;;;;;5031202;28;20293;-52
2022/06/03 13:38:16;;;;;;;7.63;7.13;;;25.00;99.90;;;;;;5014380;28;20200;-52
2022/06/03 13:42:57;;;;;;;6.88;6.38;;;25.10;99.90;;;;;;5018335;28;20309;-52
2022/06/03 13:43:30;;;;;;;8.10;7.40;;;25.10;99.90;;;;;;5020463;28;20214;-52
2022/06/03 13:46:07;;;;;;;8.40;8.00;;;25.10;99.90;;;;;;5024769;28;20214;-52
2022/06/03 13:48:50;;;;;;;13.18;11.85;;;25.10;99.90;;;;;;5008505;28;20277;-52
2022/06/03 13:51:24;;;;;;;10.52;9.52;;;24.90;99.90;;;;;;4997153;28;20286;-52
2022/06/03 13:53:55;;;;;;;3.97;3.67;;;24.70;99.90;;;;;;5004506;28;20258;-51
2022/06/03 13:56:25;;;;;;;4.23;1.80;;;24.40;99.90;;;;;;5008614;28;20612;-52
2022/06/03 13:58:53;;;;;;;5.47;1.33;;;24.20;99.90;;;;;;4994552;28;20219;-52
2022/06/03 14:01:27;;;;;;;19.40;8.37;;;23.80;99.90;;;;;;4993130;28;20223;-51
2022/06/03 14:04:00;;;;;;;10.20;3.13;;;23.50;99.90;;;;;;4999862;28;20234;-53
2022/06/03 14:06:36;;;;;;;2.67;1.60;;;23.30;99.90;;;;;;5016870;28;20256;-52
2022/06/03 14:09:11;;;;;;;5.23;1.30;;;23.10;99.90;;;;;;5018755;28;20280;-52
2022/06/03 14:11:42;;;;;;;7.53;2.27;;;22.90;99.90;;;;;;5010610;28;20249;-52
2022/06/03 14:14:15;;;;;;;9.17;4.47;;;22.90;99.90;;;;;;4993112;28;20254;-52
2022/06/03 14:16:47;;;;;;;14.73;8.03;;;22.70;99.90;;;;;;5019227;28;20279;-52
2022/06/03 14:19:36;;;;;;;8.23;2.93;;;22.70;99.90;;;;;;4991380;28;20605;-52
2022/06/03 14:22:14;;;;;;;3.50;1.73;;;22.60;99.90;;;;;;4990925;28;20705;-52
2022/06/03 14:24:49;;;;;;;6.70;2.97;;;22.70;99.90;;;;;;4997076;28;20199;-51
2022/06/03 14:27:28;;;;;;;27.57;14.63;;;22.60;99.90;;;;;;4998612;28;20210;-51
2022/06/03 14:30:01;;;;;;;9.63;3.37;;;22.40;99.90;;;;;;5014241;28;20298;-52
2022/06/03 14:32:34;;;;;;;11.10;6.03;;;22.30;99.90;;;;;;4991187;28;20267;-52
2022/06/03 14:35:06;;;;;;;3.87;1.87;;;22.30;99.90;;;;;;5001589;28;20235;-52
2022/06/03 14:37:42;;;;;;;3.33;0.77;;;22.10;99.90;;;;;;5018117;28;20215;-52
2022/06/03 14:40:16;;;;;;;3.27;1.93;;;22.00;99.90;;;;;;4994933;28;20721;-51
2022/06/03 14:42:44;;;;;;;2.33;2.20;;;21.70;99.90;;;;;;4994745;28;20705;-51